sensor_id;sensor_type;location;lat;lon;timestamp;pressure;altitude;pressure_sealevel;temperature;humidity
2000;BME280;1001;48.87406500;9.59633600;2023-02-12T00:02:23;96933.84;;;5.57;96.47
2000;BME280;1001;48.87406500;9.59633600;2023-02-12T00:04:50;96926.50;;;5.53;96.20
2000;BME280;1001;48.87406500;9.59633600;2023-02-12T00:07:17;96925.03;;;5.50;97.32
2000;BME280;1001;48.87406500;9.59633600;2023-02-12T00:09:45;96930.88;;;5.52;96.45
2000;BME280;1001;48.87406500;9.59633600;2023-02-12T00:12:12;96934.59;;;5.49;96.11
2000;BME280;1001;48.87406500;9.59633600;2023-02-12T00:14:38;96930.38;;;5.48;96.03
2000;BME280;1001;48.87406500;9.59633600;2023-02-12T00:17:05;96928.94;;;5.54;96.57
2000;BME280;1001;48.87406500;9.59633600;2023-02-12T00:19:32;96931.41;;;5.56;95.16
2000;BME280;1001;48.87406500;9.59633600;2023-02-12T00:21:58;96931.03;;;5.50;95.80
2000;BME280;1001;48.87406500;9.59633600;2023-02-12T00:24:25;96928.00;;;5.55;96.45
2000;BME280;1001;48.87406500;9.59633600;2023-02-12T00:26:53;96920.56;;;5.60;95.50
2000;BME280;1001;48.87406500;9.59633600;2023-02-12T00:29:20;96920.84;;;5.57;94.90
2000;BME280;1001;48.87406500;9.59633600;2023-02-12T00:31:47;96921.81;;;5.56;95.33
2000;BME280;1001;48.87406500;9.59633600;2023-02-12T00:34:13;96926.50;;;5.53;95.96
2000;BME280;1001;48.87406500;9.59633600;2023-02-12T00:36:40;96934.06;;;5.20;97.49
2000;BME280;1001;48.87406500;9.59633600;2023-02-12T00:39:06;96926.97;;;5.22;97.38
2000;BME280;1001;48.87406500;9.59633600;2023-02-12T00:41:33;96935.03;;;5.19;97.53
2000;BME280;1001;48.87406500;9.59633600;2023-02-12T00:44:01;96935.09;;;5.10;98.81
2000;BME280;1001;48.87406500;9.59633600;2023-02-12T00:46:27;96934.53;;;5.16;98.37
2000;BME280;1001;48.87406500;9.59633600;2023-02-12T00:48:54;96944.53;;;5.11;98.43
2000;BME280;1001;48.87406500;9.59633600;2023-02-12T00:51:21;96940.59;;;5.07;98.07
2000;BME280;1001;48.87406500;9.59633600;2023-02-12T00:53:47;96940.00;;;5.13;98.52
2000;BME280;1001;48.87406500;9.59633600;2023-02-12T00:56:14;96940.22;;;5.19;97.96
2000;BME280;1001;48.87406500;9.59633600;2023-02-12T00:58:41;96936.41;;;5.31;96.81
2000;BME280;1001;48.87406500;9.59633600;2023-02-12T01:01:09;96936.06;;;5.26;96.95
2000;BME280;1001;48.87406500;9.59633600;2023-02-12T01:03:36;96933.38;;;5.18;97.19
2000;BME280;1001;48.87406500;9.59633600;2023-02-12T01:06:03;96934.41;;;5.25;96.72
2000;BME280;1001;48.87406500;9.59633600;2023-02-12T01:08:30;96931.03;;;5.25;97.44
2000;BME280;1001;48.87406500;9.59633600;2023-02-12T01:10:58;96931.94;;;5.16;98.23
2000;BME280;1001;48.87406500;9.59633600;2023-02-12T01:13:25;96927.53;;;5.34;97.32
2000;BME280;1001;48.87406500;9.59633600;2023-02-12T01:16:01;96934.66;;;5.32;97.60
2000;BME280;1001;48.87406500;9.59633600;2023-02-12T01:18:29;96931.28;;;5.39;97.36
2000;BME280;1001;48.87406500;9.59633600;2023-02-12T01:20:55;96928.16;;;5.54;96.20
2000;BME280;1001;48.87406500;9.59633600;2023-02-12T01:23:23;96921.06;;;5.38;97.75
2000;BME280;1001;48.87406500;9.59633600;2023-02-12T01:25:50;96928.00;;;5.37;98.24
2000;BME280;1001;48.87406500;9.59633600;2023-02-12T01:28:17;96925.19;;;5.23;98.42
2000;BME280;1001;48.87406500;9.59633600;2023-02-12T01:30:43;96932.72;;;5.16;99.22
2000;BME280;1001;48.87406500;9.59633600;2023-02-12T01:33:10;96934.16;;;5.11;99.51
2000;BME280;1001;48.87406500;9.59633600;2023-02-12T01:35:38;96933.34;;;5.10;99.78
2000;BME280;1001;48.87406500;9.59633600;2023-02-12T01:38:04;96929.72;;;5.03;99.62
2000;BME280;1001;48.87406500;9.59633600;2023-02-12T01:40:31;96928.91;;;5.03;99.96
2000;BME280;1001;48.87406500;9.59633600;2023-02-12T01:43:00;96940.91;;;5.04;100.00
2000;BME280;1001;48.87406500;9.59633600;2023-02-12T01:45:45;96934.66;;;5.14;99.69
2000;BME280;1001;48.87406500;9.59633600;2023-02-12T01:48:13;96930.59;;;5.12;98.94
2000;BME280;1001;48.87406500;9.59633600;2023-02-12T01:50:45;96928.00;;;5.12;99.46
2000;BME280;1001;48.87406500;9.59633600;2023-02-12T01:53:14;96926.44;;;5.19;98.43
2000;BME280;1001;48.87406500;9.59633600;2023-02-12T01:55:48;96928.44;;;5.07;98.42
2000;BME280;1001;48.87406500;9.59633600;2023-02-12T01:58:16;96917.69;;;5.02;98.46
2000;BME280;1001;48.87406500;9.59633600;2023-02-12T02:00:43;96929.34;;;5.16;98.41
2000;BME280;1001;48.87406500;9.59633600;2023-02-12T02:03:10;96927.91;;;5.21;97.50
2000;BME280;1001;48.87406500;9.59633600;2023-02-12T02:05:42;96914.91;;;5.13;97.93
2000;BME280;1001;48.87406500;9.59633600;2023-02-12T02:08:11;96917.13;;;5.08;97.82
2000;BME280;1001;48.87406500;9.59633600;2023-02-12T02:10:38;96910.22;;;5.17;97.06
2000;BME280;1001;48.87406500;9.59633600;2023-02-12T02:13:05;96917.03;;;5.18;96.50
2000;BME280;1001;48.87406500;9.59633600;2023-02-12T02:15:53;96917.16;;;5.16;96.92
2000;BME280;1001;48.87406500;9.59633600;2023-02-12T02:18:26;96911.03;;;5.17;96.77
2000;BME280;1001;48.87406500;9.59633600;2023-02-12T02:26:53;96904.91;;;5.01;97.49
2000;BME280;1001;48.87406500;9.59633600;2023-02-12T02:29:43;96910.38;;;4.98;97.04
2000;BME280;1001;48.87406500;9.59633600;2023-02-12T02:32:17;96904.53;;;4.96;97.39
2000;BME280;1001;48.87406500;9.59633600;2023-02-12T02:34:54;96912.03;;;4.99;97.60
2000;BME280;1001;48.87406500;9.59633600;2023-02-12T02:37:26;96910.91;;;5.01;97.39
2000;BME280;1001;48.87406500;9.59633600;2023-02-12T02:39:59;96897.94;;;5.01;98.02
2000;BME280;1001;48.87406500;9.59633600;2023-02-12T02:42:32;96900.00;;;4.98;97.60
2000;BME280;1001;48.87406500;9.59633600;2023-02-12T02:45:03;96900.38;;;5.03;98.57
2000;BME280;1001;48.87406500;9.59633600;2023-02-12T02:47:38;96896.16;;;5.02;97.88
2000;BME280;1001;48.87406500;9.59633600;2023-02-12T02:50:09;96899.25;;;5.05;98.22
2000;BME280;1001;48.87406500;9.59633600;2023-02-12T02:52:42;96895.19;;;5.03;97.97
2000;BME280;1001;48.87406500;9.59633600;2023-02-12T02:55:12;96895.72;;;5.06;98.11
2000;BME280;1001;48.87406500;9.59633600;2023-02-12T02:57:45;96900.22;;;5.04;98.24
2000;BME280;1001;48.87406500;9.59633600;2023-02-12T03:00:16;96904.16;;;5.08;97.97
2000;BME280;1001;48.87406500;9.59633600;2023-02-12T03:02:47;96906.13;;;5.14;97.78
2000;BME280;1001;48.87406500;9.59633600;2023-02-12T03:05:18;96903.16;;;5.27;96.94
2000;BME280;1001;48.87406500;9.59633600;2023-02-12T03:07:50;96904.66;;;5.12;96.79
2000;BME280;1001;48.87406500;9.59633600;2023-02-12T03:10:19;96895.84;;;5.05;97.45
2000;BME280;1001;48.87406500;9.59633600;2023-02-12T03:12:51;96909.56;;;5.15;97.49
2000;BME280;1001;48.87406500;9.59633600;2023-02-12T03:15:24;96907.31;;;5.20;97.87
2000;BME280;1001;48.87406500;9.59633600;2023-02-12T03:17:55;96911.69;;;5.19;97.69
2000;BME280;1001;48.87406500;9.59633600;2023-02-12T03:20:25;96918.66;;;5.19;97.90
2000;BME280;1001;48.87406500;9.59633600;2023-02-12T03:22:58;96911.97;;;5.16;97.44
2000;BME280;1001;48.87406500;9.59633600;2023-02-12T03:25:32;96913.06;;;5.06;98.00
2000;BME280;1001;48.87406500;9.59633600;2023-02-12T03:28:03;96914.13;;;5.21;97.66
2000;BME280;1001;48.87406500;9.59633600;2023-02-12T03:30:43;96914.38;;;5.10;97.02
2000;BME280;1001;48.87406500;9.59633600;2023-02-12T03:33:19;96916.09;;;5.01;96.86
2000;BME280;1001;48.87406500;9.59633600;2023-02-12T03:35:54;96909.50;;;4.89;97.41
2000;BME280;1001;48.87406500;9.59633600;2023-02-12T03:38:32;96907.56;;;4.91;97.59
2000;BME280;1001;48.87406500;9.59633600;2023-02-12T03:41:04;96914.41;;;4.92;98.23
2000;BME280;1001;48.87406500;9.59633600;2023-02-12T03:43:38;96911.50;;;4.95;97.90
2000;BME280;1001;48.87406500;9.59633600;2023-02-12T03:46:14;96915.72;;;4.96;97.70
2000;BME280;1001;48.87406500;9.59633600;2023-02-12T03:48:49;96914.41;;;4.92;98.97
2000;BME280;1001;48.87406500;9.59633600;2023-02-12T03:51:25;96918.41;;;4.87;100.00
2000;BME280;1001;48.87406500;9.59633600;2023-02-12T03:53:55;96917.28;;;4.89;99.56
2000;BME280;1001;48.87406500;9.59633600;2023-02-12T03:56:24;96915.13;;;4.85;100.00
2000;BME280;1001;48.87406500;9.59633600;2023-02-12T03:58:52;96916.16;;;4.74;100.00
2000;BME280;1001;48.87406500;9.59633600;2023-02-12T04:01:19;96918.63;;;4.75;100.00
2000;BME280;1001;48.87406500;9.59633600;2023-02-12T04:03:47;96923.94;;;4.74;100.00
2000;BME280;1001;48.87406500;9.59633600;2023-02-12T04:06:21;96931.72;;;4.74;100.00
2000;BME280;1001;48.87406500;9.59633600;2023-02-12T04:08:48;96927.72;;;4.79;100.00
2000;BME280;1001;48.87406500;9.59633600;2023-02-12T04:11:24;96931.63;;;4.83;100.00
2000;BME280;1001;48.87406500;9.59633600;2023-02-12T04:14:07;96928.03;;;4.94;100.00
2000;BME280;1001;48.87406500;9.59633600;2023-02-12T04:16:42;96932.59;;;5.00;100.00
2000;BME280;1001;48.87406500;9.59633600;2023-02-12T04:19:16;96932.97;;;4.88;100.00
2000;BME280;1001;48.87406500;9.59633600;2023-02-12T04:21:52;96938.22;;;4.78;100.00
2000;BME280;1001;48.87406500;9.59633600;2023-02-12T04:24:36;96935.72;;;4.86;100.00
2000;BME280;1001;48.87406500;9.59633600;2023-02-12T04:27:09;96932.69;;;4.91;100.00
2000;BME280;1001;48.87406500;9.59633600;2023-02-12T04:29:45;96938.59;;;4.83;100.00
2000;BME280;1001;48.87406500;9.59633600;2023-02-12T04:32:16;96935.63;;;4.78;100.00
2000;BME280;1001;48.87406500;9.59633600;2023-02-12T04:34:51;96939.34;;;4.75;100.00
2000;BME280;1001;48.87406500;9.59633600;2023-02-12T04:37:23;96941.34;;;4.81;100.00
2000;BME280;1001;48.87406500;9.59633600;2023-02-12T04:39:52;96943.72;;;4.75;100.00
2000;BME280;1001;48.87406500;9.59633600;2023-02-12T04:42:19;96944.22;;;4.78;100.00
2000;BME280;1001;48.87406500;9.59633600;2023-02-12T04:44:48;96943.84;;;4.73;100.00
2000;BME280;1001;48.87406500;9.59633600;2023-02-12T04:47:15;96941.56;;;4.88;100.00
2000;BME280;1001;48.87406500;9.59633600;2023-02-12T04:49:42;96942.00;;;4.83;100.00
2000;BME280;1001;48.87406500;9.59633600;2023-02-12T04:52:10;96940.81;;;4.78;100.00
2000;BME280;1001;48.87406500;9.59633600;2023-02-12T04:54:37;96944.88;;;4.80;100.00
2000;BME280;1001;48.87406500;9.59633600;2023-02-12T04:57:03;96940.53;;;4.81;100.00
2000;BME280;1001;48.87406500;9.59633600;2023-02-12T04:59:30;96943.78;;;4.83;100.00
2000;BME280;1001;48.87406500;9.59633600;2023-02-12T05:01:57;96945.56;;;4.82;100.00
2000;BME280;1001;48.87406500;9.59633600;2023-02-12T05:04:23;96946.44;;;4.73;100.00
2000;BME280;1001;48.87406500;9.59633600;2023-02-12T05:06:50;96942.06;;;4.74;100.00
2000;BME280;1001;48.87406500;9.59633600;2023-02-12T05:09:19;96935.94;;;4.75;100.00
2000;BME280;1001;48.87406500;9.59633600;2023-02-12T05:11:46;96932.75;;;4.63;100.00
2000;BME280;1001;48.87406500;9.59633600;2023-02-12T05:14:12;96941.09;;;4.57;100.00
2000;BME280;1001;48.87406500;9.59633600;2023-02-12T05:16:39;96933.31;;;4.57;100.00
2000;BME280;1001;48.87406500;9.59633600;2023-02-12T05:19:06;96934.16;;;4.58;100.00
2000;BME280;1001;48.87406500;9.59633600;2023-02-12T05:21:33;96934.75;;;4.52;100.00
2000;BME280;1001;48.87406500;9.59633600;2023-02-12T05:24:00;96936.34;;;4.53;100.00
2000;BME280;1001;48.87406500;9.59633600;2023-02-12T05:26:28;96937.34;;;4.52;100.00
2000;BME280;1001;48.87406500;9.59633600;2023-02-12T05:28:55;96941.38;;;4.37;100.00
2000;BME280;1001;48.87406500;9.59633600;2023-02-12T05:31:22;96930.78;;;4.30;100.00
2000;BME280;1001;48.87406500;9.59633600;2023-02-12T05:33:48;96935.66;;;4.33;100.00
2000;BME280;1001;48.87406500;9.59633600;2023-02-12T05:36:17;96931.84;;;4.37;100.00
2000;BME280;1001;48.87406500;9.59633600;2023-02-12T05:38:44;96937.75;;;4.47;100.00
2000;BME280;1001;48.87406500;9.59633600;2023-02-12T05:41:12;96944.47;;;4.40;100.00
2000;BME280;1001;48.87406500;9.59633600;2023-02-12T05:43:41;96944.34;;;4.42;100.00
2000;BME280;1001;48.87406500;9.59633600;2023-02-12T05:46:09;96935.03;;;4.22;100.00
2000;BME280;1001;48.87406500;9.59633600;2023-02-12T05:48:36;96939.88;;;4.07;100.00
2000;BME280;1001;48.87406500;9.59633600;2023-02-12T05:51:04;96938.06;;;4.17;100.00
2000;BME280;1001;48.87406500;9.59633600;2023-02-12T05:53:32;96946.88;;;4.24;100.00
2000;BME280;1001;48.87406500;9.59633600;2023-02-12T05:56:10;96938.50;;;4.12;100.00
2000;BME280;1001;48.87406500;9.59633600;2023-02-12T05:58:37;96939.31;;;4.13;100.00
2000;BME280;1001;48.87406500;9.59633600;2023-02-12T06:01:10;96939.31;;;4.13;100.00
2000;BME280;1001;48.87406500;9.59633600;2023-02-12T06:03:36;96947.84;;;4.23;100.00
2000;BME280;1001;48.87406500;9.59633600;2023-02-12T06:06:03;96942.28;;;4.18;100.00
2000;BME280;1001;48.87406500;9.59633600;2023-02-12T06:08:30;96950.06;;;4.18;100.00
2000;BME280;1001;48.87406500;9.59633600;2023-02-12T06:10:59;96943.84;;;4.29;100.00
2000;BME280;1001;48.87406500;9.59633600;2023-02-12T06:13:26;96944.59;;;4.21;100.00
2000;BME280;1001;48.87406500;9.59633600;2023-02-12T06:15:53;96940.38;;;4.20;100.00
2000;BME280;1001;48.87406500;9.59633600;2023-02-12T06:18:21;96951.41;;;4.22;100.00
2000;BME280;1001;48.87406500;9.59633600;2023-02-12T06:20:48;96941.66;;;4.34;100.00
2000;BME280;1001;48.87406500;9.59633600;2023-02-12T06:23:14;96947.06;;;4.40;100.00
2000;BME280;1001;48.87406500;9.59633600;2023-02-12T06:25:41;96946.34;;;4.48;100.00
2000;BME280;1001;48.87406500;9.59633600;2023-02-12T06:28:08;96940.78;;;4.43;100.00
2000;BME280;1001;48.87406500;9.59633600;2023-02-12T06:30:34;96942.41;;;4.44;100.00
2000;BME280;1001;48.87406500;9.59633600;2023-02-12T06:33:01;96942.97;;;4.38;100.00
2000;BME280;1001;48.87406500;9.59633600;2023-02-12T06:35:29;96937.28;;;4.34;100.00
2000;BME280;1001;48.87406500;9.59633600;2023-02-12T06:37:56;96951.97;;;4.43;100.00
2000;BME280;1001;48.87406500;9.59633600;2023-02-12T06:40:22;96952.84;;;4.34;100.00
2000;BME280;1001;48.87406500;9.59633600;2023-02-12T06:42:49;96957.06;;;4.35;100.00
2000;BME280;1001;48.87406500;9.59633600;2023-02-12T06:45:16;96965.88;;;4.42;100.00
2000;BME280;1001;48.87406500;9.59633600;2023-02-12T06:47:42;96960.56;;;4.44;100.00
2000;BME280;1001;48.87406500;9.59633600;2023-02-12T06:50:10;96954.06;;;4.57;100.00
2000;BME280;1001;48.87406500;9.59633600;2023-02-12T06:52:38;96968.41;;;4.52;100.00
2000;BME280;1001;48.87406500;9.59633600;2023-02-12T06:55:05;96962.34;;;4.61;100.00
2000;BME280;1001;48.87406500;9.59633600;2023-02-12T06:57:32;96966.94;;;4.49;100.00
2000;BME280;1001;48.87406500;9.59633600;2023-02-12T06:59:58;96967.22;;;4.46;100.00
2000;BME280;1001;48.87406500;9.59633600;2023-02-12T07:02:25;96975.75;;;4.56;100.00
2000;BME280;1001;48.87406500;9.59633600;2023-02-12T07:04:52;96976.50;;;4.66;100.00
2000;BME280;1001;48.87406500;9.59633600;2023-02-12T07:07:18;96973.16;;;4.56;100.00
2000;BME280;1001;48.87406500;9.59633600;2023-02-12T07:09:46;96969.59;;;4.57;100.00
2000;BME280;1001;48.87406500;9.59633600;2023-02-12T07:12:13;96974.72;;;4.67;100.00
2000;BME280;1001;48.87406500;9.59633600;2023-02-12T07:14:40;96975.50;;;4.50;100.00
2000;BME280;1001;48.87406500;9.59633600;2023-02-12T07:17:06;96979.69;;;4.60;100.00
2000;BME280;1001;48.87406500;9.59633600;2023-02-12T07:19:34;96976.75;;;4.73;100.00
2000;BME280;1001;48.87406500;9.59633600;2023-02-12T07:22:01;96978.63;;;4.71;100.00
2000;BME280;1001;48.87406500;9.59633600;2023-02-12T07:24:28;96980.19;;;4.64;100.00
2000;BME280;1001;48.87406500;9.59633600;2023-02-12T07:26:56;96982.78;;;4.64;100.00
2000;BME280;1001;48.87406500;9.59633600;2023-02-12T07:29:23;96981.91;;;4.73;100.00
2000;BME280;1001;48.87406500;9.59633600;2023-02-12T07:31:49;96986.06;;;4.83;100.00
2000;BME280;1001;48.87406500;9.59633600;2023-02-12T07:34:16;96982.88;;;4.72;100.00
2000;BME280;1001;48.87406500;9.59633600;2023-02-12T07:36:42;96982.22;;;4.70;100.00
2000;BME280;1001;48.87406500;9.59633600;2023-02-12T07:39:10;96984.34;;;4.74;100.00
2000;BME280;1001;48.87406500;9.59633600;2023-02-12T07:41:37;96979.16;;;4.74;100.00
2000;BME280;1001;48.87406500;9.59633600;2023-02-12T07:44:06;96980.53;;;4.96;100.00
2000;BME280;1001;48.87406500;9.59633600;2023-02-12T07:46:36;96980.66;;;4.95;100.00
2000;BME280;1001;48.87406500;9.59633600;2023-02-12T07:49:05;96989.19;;;5.05;100.00
2000;BME280;1001;48.87406500;9.59633600;2023-02-12T07:51:33;96990.88;;;5.14;100.00
2000;BME280;1001;48.87406500;9.59633600;2023-02-12T07:54:00;96988.59;;;5.11;100.00
2000;BME280;1001;48.87406500;9.59633600;2023-02-12T07:56:29;96990.66;;;5.07;100.00
2000;BME280;1001;48.87406500;9.59633600;2023-02-12T07:58:58;96990.59;;;5.17;100.00
2000;BME280;1001;48.87406500;9.59633600;2023-02-12T08:01:27;96988.88;;;5.43;100.00
2000;BME280;1001;48.87406500;9.59633600;2023-02-12T08:03:57;96989.69;;;5.26;100.00
2000;BME280;1001;48.87406500;9.59633600;2023-02-12T08:06:26;96983.38;;;5.46;100.00
2000;BME280;1001;48.87406500;9.59633600;2023-02-12T08:08:55;96990.72;;;5.50;100.00
2000;BME280;1001;48.87406500;9.59633600;2023-02-12T08:11:22;96997.25;;;5.37;100.00
2000;BME280;1001;48.87406500;9.59633600;2023-02-12T08:13:49;96992.84;;;5.55;100.00
2000;BME280;1001;48.87406500;9.59633600;2023-02-12T08:16:18;97002.69;;;5.51;100.00
2000;BME280;1001;48.87406500;9.59633600;2023-02-12T08:18:47;97001.25;;;5.31;100.00
2000;BME280;1001;48.87406500;9.59633600;2023-02-12T08:21:15;96996.44;;;5.36;100.00
2000;BME280;1001;48.87406500;9.59633600;2023-02-12T08:23:43;96999.16;;;5.53;100.00
2000;BME280;1001;48.87406500;9.59633600;2023-02-12T08:26:12;96993.97;;;5.53;100.00
2000;BME280;1001;48.87406500;9.59633600;2023-02-12T08:28:41;96989.91;;;5.50;100.00
2000;BME280;1001;48.87406500;9.59633600;2023-02-12T08:31:11;96983.31;;;5.38;100.00
2000;BME280;1001;48.87406500;9.59633600;2023-02-12T08:33:38;96989.50;;;5.63;100.00
2000;BME280;1001;48.87406500;9.59633600;2023-02-12T08:36:08;96991.22;;;5.80;100.00
2000;BME280;1001;48.87406500;9.59633600;2023-02-12T08:38:36;96998.16;;;5.71;100.00
2000;BME280;1001;48.87406500;9.59633600;2023-02-12T08:41:04;96984.59;;;5.77;100.00
2000;BME280;1001;48.87406500;9.59633600;2023-02-12T08:43:32;96996.41;;;5.54;100.00
2000;BME280;1001;48.87406500;9.59633600;2023-02-12T08:46:03;96995.25;;;5.74;100.00
2000;BME280;1001;48.87406500;9.59633600;2023-02-12T08:48:30;96985.72;;;5.83;100.00
2000;BME280;1001;48.87406500;9.59633600;2023-02-12T08:51:07;96983.69;;;5.86;100.00
2000;BME280;1001;48.87406500;9.59633600;2023-02-12T08:53:34;96994.28;;;5.93;100.00
2000;BME280;1001;48.87406500;9.59633600;2023-02-12T08:56:01;96995.84;;;6.11;100.00
2000;BME280;1001;48.87406500;9.59633600;2023-02-12T08:58:28;96997.53;;;5.95;100.00
2000;BME280;1001;48.87406500;9.59633600;2023-02-12T09:00:55;97004.69;;;6.27;100.00
2000;BME280;1001;48.87406500;9.59633600;2023-02-12T09:03:22;97003.69;;;6.28;100.00
2000;BME280;1001;48.87406500;9.59633600;2023-02-12T09:05:49;97000.84;;;6.47;100.00
2000;BME280;1001;48.87406500;9.59633600;2023-02-12T09:08:17;97000.78;;;6.72;100.00
2000;BME280;1001;48.87406500;9.59633600;2023-02-12T09:10:44;97004.06;;;6.82;99.85
2000;BME280;1001;48.87406500;9.59633600;2023-02-12T09:13:12;97004.38;;;6.79;99.15
2000;BME280;1001;48.87406500;9.59633600;2023-02-12T09:15:39;96998.69;;;6.84;99.50
2000;BME280;1001;48.87406500;9.59633600;2023-02-12T09:18:06;96998.72;;;6.92;99.02
2000;BME280;1001;48.87406500;9.59633600;2023-02-12T09:20:36;96992.19;;;6.80;98.74
2000;BME280;1001;48.87406500;9.59633600;2023-02-12T09:23:04;96992.06;;;6.90;99.07
2000;BME280;1001;48.87406500;9.59633600;2023-02-12T09:25:32;96995.81;;;7.03;98.12
2000;BME280;1001;48.87406500;9.59633600;2023-02-12T09:27:59;97005.56;;;7.01;98.41
2000;BME280;1001;48.87406500;9.59633600;2023-02-12T09:30:26;97000.72;;;7.14;97.36
2000;BME280;1001;48.87406500;9.59633600;2023-02-12T09:32:53;96993.06;;;7.05;97.47
2000;BME280;1001;48.87406500;9.59633600;2023-02-12T09:35:20;97002.63;;;6.96;97.86
2000;BME280;1001;48.87406500;9.59633600;2023-02-12T09:37:46;96997.75;;;7.01;96.91
2000;BME280;1001;48.87406500;9.59633600;2023-02-12T09:40:17;96996.16;;;7.08;96.85
2000;BME280;1001;48.87406500;9.59633600;2023-02-12T09:43:03;97003.47;;;7.05;97.23
2000;BME280;1001;48.87406500;9.59633600;2023-02-12T09:45:35;97004.31;;;7.21;96.49
2000;BME280;1001;48.87406500;9.59633600;2023-02-12T09:48:14;96997.81;;;7.49;95.34
2000;BME280;1001;48.87406500;9.59633600;2023-02-12T09:50:47;96999.59;;;7.17;94.79
2000;BME280;1001;48.87406500;9.59633600;2023-02-12T09:53:19;97002.50;;;7.14;95.50
2000;BME280;1001;48.87406500;9.59633600;2023-02-12T09:55:46;96997.44;;;6.88;96.83
2000;BME280;1001;48.87406500;9.59633600;2023-02-12T09:58:19;96999.44;;;7.34;95.86
2000;BME280;1001;48.87406500;9.59633600;2023-02-12T10:00:47;97007.09;;;7.44;94.66
2000;BME280;1001;48.87406500;9.59633600;2023-02-12T10:03:15;97008.03;;;7.43;95.04
2000;BME280;1001;48.87406500;9.59633600;2023-02-12T10:05:46;97010.81;;;7.41;94.18
2000;BME280;1001;48.87406500;9.59633600;2023-02-12T10:08:26;97008.56;;;7.54;94.56
2000;BME280;1001;48.87406500;9.59633600;2023-02-12T10:11:03;97015.22;;;7.65;93.56
2000;BME280;1001;48.87406500;9.59633600;2023-02-12T10:13:46;97009.19;;;7.48;94.85
2000;BME280;1001;48.87406500;9.59633600;2023-02-12T10:16:30;97011.16;;;7.71;93.89
2000;BME280;1001;48.87406500;9.59633600;2023-02-12T10:19:11;97016.19;;;7.72;93.77
2000;BME280;1001;48.87406500;9.59633600;2023-02-12T10:21:49;97009.66;;;7.76;93.06
2000;BME280;1001;48.87406500;9.59633600;2023-02-12T10:24:54;97007.38;;;7.25;93.62
2000;BME280;1001;48.87406500;9.59633600;2023-02-12T10:27:33;97010.47;;;7.20;94.39
2000;BME280;1001;48.87406500;9.59633600;2023-02-12T10:30:13;97012.28;;;7.44;94.11
2000;BME280;1001;48.87406500;9.59633600;2023-02-12T10:32:45;97008.22;;;7.33;94.10
2000;BME280;1001;48.87406500;9.59633600;2023-02-12T10:35:14;97020.41;;;7.65;94.28
2000;BME280;1001;48.87406500;9.59633600;2023-02-12T10:37:43;97013.59;;;7.56;93.39
2000;BME280;1001;48.87406500;9.59633600;2023-02-12T10:40:16;97004.66;;;7.42;93.50
2000;BME280;1001;48.87406500;9.59633600;2023-02-12T10:42:46;97003.34;;;7.30;93.59
2000;BME280;1001;48.87406500;9.59633600;2023-02-12T10:45:17;97005.09;;;7.22;94.50
2000;BME280;1001;48.87406500;9.59633600;2023-02-12T10:47:45;97001.06;;;7.35;94.60
2000;BME280;1001;48.87406500;9.59633600;2023-02-12T10:50:21;96999.91;;;7.14;95.55
2000;BME280;1001;48.87406500;9.59633600;2023-02-12T10:52:53;96998.78;;;7.16;95.71
2000;BME280;1001;48.87406500;9.59633600;2023-02-12T10:55:26;96996.16;;;7.24;95.28
2000;BME280;1001;48.87406500;9.59633600;2023-02-12T10:57:54;96999.59;;;7.33;95.10
2000;BME280;1001;48.87406500;9.59633600;2023-02-12T11:00:25;96996.50;;;7.62;94.22
2000;BME280;1001;48.87406500;9.59633600;2023-02-12T11:03:01;96986.25;;;7.28;94.78
2000;BME280;1001;48.87406500;9.59633600;2023-02-12T11:05:29;96979.41;;;7.27;94.49
2000;BME280;1001;48.87406500;9.59633600;2023-02-12T11:07:56;96984.47;;;7.20;96.04
2000;BME280;1001;48.87406500;9.59633600;2023-02-12T11:10:27;96986.09;;;7.37;94.80
2000;BME280;1001;48.87406500;9.59633600;2023-02-12T11:12:54;96986.44;;;7.42;95.15
2000;BME280;1001;48.87406500;9.59633600;2023-02-12T11:15:25;96980.72;;;7.63;93.57
2000;BME280;1001;48.87406500;9.59633600;2023-02-12T11:17:57;96975.84;;;7.68;94.85
2000;BME280;1001;48.87406500;9.59633600;2023-02-12T11:20:26;96980.88;;;7.53;94.13
2000;BME280;1001;48.87406500;9.59633600;2023-02-12T11:22:56;96977.09;;;7.88;93.75
2000;BME280;1001;48.87406500;9.59633600;2023-02-12T11:25:26;96976.31;;;7.80;92.50
2000;BME280;1001;48.87406500;9.59633600;2023-02-12T11:28:04;96972.06;;;7.79;92.49
2000;BME280;1001;48.87406500;9.59633600;2023-02-12T11:30:33;96973.00;;;8.02;91.39
2000;BME280;1001;48.87406500;9.59633600;2023-02-12T11:33:15;96976.47;;;7.62;93.34
2000;BME280;1001;48.87406500;9.59633600;2023-02-12T11:35:50;96983.59;;;8.00;92.96
2000;BME280;1001;48.87406500;9.59633600;2023-02-12T11:38:22;96978.06;;;8.03;92.58
2000;BME280;1001;48.87406500;9.59633600;2023-02-12T11:40:50;96982.44;;;8.03;92.43
2000;BME280;1001;48.87406500;9.59633600;2023-02-12T11:43:19;96979.34;;;8.07;92.12
2000;BME280;1001;48.87406500;9.59633600;2023-02-12T11:45:49;96971.84;;;8.12;91.38
2000;BME280;1001;48.87406500;9.59633600;2023-02-12T11:48:19;96974.16;;;7.91;91.90
2000;BME280;1001;48.87406500;9.59633600;2023-02-12T11:50:48;96977.63;;;7.76;93.30
2000;BME280;1001;48.87406500;9.59633600;2023-02-12T11:53:21;96984.63;;;7.67;93.17
2000;BME280;1001;48.87406500;9.59633600;2023-02-12T11:55:53;96972.13;;;7.54;93.42
2000;BME280;1001;48.87406500;9.59633600;2023-02-12T11:58:22;96975.03;;;7.68;93.43
2000;BME280;1001;48.87406500;9.59633600;2023-02-12T12:00:53;96980.06;;;7.69;93.91
2000;BME280;1001;48.87406500;9.59633600;2023-02-12T12:03:25;96983.16;;;7.73;93.19
2000;BME280;1001;48.87406500;9.59633600;2023-02-12T12:06:00;96972.22;;;7.93;93.12
2000;BME280;1001;48.87406500;9.59633600;2023-02-12T12:08:32;96967.50;;;7.97;91.69